sensor_id;sensor_type;location;lat;lon;timestamp;temperature;humidity
45785;DHT22;31489;51.404;5.474;2023-06-22T00:02:13;25.70;50.10
45785;DHT22;31489;51.404;5.474;2023-06-22T00:04:39;25.70;50.00
45785;DHT22;31489;51.404;5.474;2023-06-22T00:07:05;25.60;50.10
45785;DHT22;31489;51.404;5.474;2023-06-22T00:09:31;25.60;50.10
45785;DHT22;31489;51.404;5.474;2023-06-22T00:11:57;25.60;50.10
45785;DHT22;31489;51.404;5.474;2023-06-22T00:14:22;25.60;50.30
45785;DHT22;31489;51.404;5.474;2023-06-22T00:16:48;25.50;50.40
45785;DHT22;31489;51.404;5.474;2023-06-22T00:19:15;25.50;50.50
45785;DHT22;31489;51.404;5.474;2023-06-22T00:21:41;25.50;50.70
45785;DHT22;31489;51.404;5.474;2023-06-22T00:24:08;25.50;50.80
45785;DHT22;31489;51.404;5.474;2023-06-22T00:26:33;25.40;50.90
45785;DHT22;31489;51.404;5.474;2023-06-22T00:28:59;25.40;50.90
45785;DHT22;31489;51.404;5.474;2023-06-22T00:31:25;25.40;51.10
45785;DHT22;31489;51.404;5.474;2023-06-22T00:33:50;25.40;51.20
45785;DHT22;31489;51.404;5.474;2023-06-22T00:36:17;25.40;51.20
45785;DHT22;31489;51.404;5.474;2023-06-22T00:38:43;25.40;51.30
45785;DHT22;31489;51.404;5.474;2023-06-22T00:41:09;25.40;51.60
45785;DHT22;31489;51.404;5.474;2023-06-22T00:43:34;25.40;51.50
45785;DHT22;31489;51.404;5.474;2023-06-22T00:46:00;25.30;51.60
45785;DHT22;31489;51.404;5.474;2023-06-22T00:48:26;25.30;51.60
45785;DHT22;31489;51.404;5.474;2023-06-22T00:50:52;25.30;51.90
45785;DHT22;31489;51.404;5.474;2023-06-22T00:53:19;25.30;52.00
45785;DHT22;31489;51.404;5.474;2023-06-22T00:55:45;25.30;52.20
45785;DHT22;31489;51.404;5.474;2023-06-22T00:58:12;25.20;52.10
45785;DHT22;31489;51.404;5.474;2023-06-22T01:00:39;25.20;52.30
45785;DHT22;31489;51.404;5.474;2023-06-22T01:03:05;25.10;52.50
45785;DHT22;31489;51.404;5.474;2023-06-22T01:05:34;25.10;52.80
45785;DHT22;31489;51.404;5.474;2023-06-22T01:08:04;25.10;52.80
45785;DHT22;31489;51.404;5.474;2023-06-22T01:13:14;25.10;53.10
45785;DHT22;31489;51.404;5.474;2023-06-22T01:15:47;25.00;53.60
45785;DHT22;31489;51.404;5.474;2023-06-22T01:18:17;25.00;53.80
45785;DHT22;31489;51.404;5.474;2023-06-22T01:20:44;25.00;53.80
45785;DHT22;31489;51.404;5.474;2023-06-22T01:23:33;25.00;53.70
45785;DHT22;31489;51.404;5.474;2023-06-22T01:26:19;25.00;54.20
45785;DHT22;31489;51.404;5.474;2023-06-22T01:28:53;25.00;54.20
45785;DHT22;31489;51.404;5.474;2023-06-22T01:31:24;25.00;54.40
45785;DHT22;31489;51.404;5.474;2023-06-22T01:33:53;25.00;54.30
45785;DHT22;31489;51.404;5.474;2023-06-22T01:36:21;25.00;54.40
45785;DHT22;31489;51.404;5.474;2023-06-22T01:38:47;25.00;54.50
45785;DHT22;31489;51.404;5.474;2023-06-22T01:41:13;25.00;54.60
45785;DHT22;31489;51.404;5.474;2023-06-22T01:43:40;25.00;54.50
45785;DHT22;31489;51.404;5.474;2023-06-22T01:46:06;25.00;54.70
45785;DHT22;31489;51.404;5.474;2023-06-22T01:48:32;25.00;54.70
45785;DHT22;31489;51.404;5.474;2023-06-22T01:50:58;24.90;54.90
45785;DHT22;31489;51.404;5.474;2023-06-22T01:53:24;24.90;55.00
45785;DHT22;31489;51.404;5.474;2023-06-22T01:55:50;24.90;54.90
45785;DHT22;31489;51.404;5.474;2023-06-22T01:58:16;24.90;55.10
45785;DHT22;31489;51.404;5.474;2023-06-22T02:00:51;24.90;54.90
45785;DHT22;31489;51.404;5.474;2023-06-22T02:03:28;24.90;55.40
45785;DHT22;31489;51.404;5.474;2023-06-22T02:06:01;24.80;55.20
45785;DHT22;31489;51.404;5.474;2023-06-22T02:08:30;24.80;55.40
45785;DHT22;31489;51.404;5.474;2023-06-22T02:10:58;24.80;55.50
45785;DHT22;31489;51.404;5.474;2023-06-22T02:13:25;24.80;55.50
45785;DHT22;31489;51.404;5.474;2023-06-22T02:15:51;24.80;55.60
45785;DHT22;31489;51.404;5.474;2023-06-22T02:18:17;24.70;55.50
45785;DHT22;31489;51.404;5.474;2023-06-22T02:20:42;24.70;55.70
45785;DHT22;31489;51.404;5.474;2023-06-22T02:23:08;24.70;55.60
45785;DHT22;31489;51.404;5.474;2023-06-22T02:25:34;24.70;55.80
45785;DHT22;31489;51.404;5.474;2023-06-22T02:28:00;24.70;55.90
45785;DHT22;31489;51.404;5.474;2023-06-22T02:30:26;24.70;56.00
45785;DHT22;31489;51.404;5.474;2023-06-22T02:32:51;24.70;56.10
45785;DHT22;31489;51.404;5.474;2023-06-22T02:35:30;24.70;56.10
45785;DHT22;31489;51.404;5.474;2023-06-22T02:38:02;24.60;56.20
45785;DHT22;31489;51.404;5.474;2023-06-22T02:40:31;24.60;56.30
45785;DHT22;31489;51.404;5.474;2023-06-22T02:42:57;24.60;56.50
45785;DHT22;31489;51.404;5.474;2023-06-22T02:45:26;24.60;56.30
45785;DHT22;31489;51.404;5.474;2023-06-22T02:47:52;24.50;56.60
45785;DHT22;31489;51.404;5.474;2023-06-22T02:50:18;24.50;56.60
45785;DHT22;31489;51.404;5.474;2023-06-22T02:52:43;24.50;56.50
45785;DHT22;31489;51.404;5.474;2023-06-22T02:55:09;24.50;56.70
45785;DHT22;31489;51.404;5.474;2023-06-22T02:57:34;24.50;56.80
45785;DHT22;31489;51.404;5.474;2023-06-22T03:00:03;24.40;56.90
45785;DHT22;31489;51.404;5.474;2023-06-22T03:02:38;24.40;57.30
45785;DHT22;31489;51.404;5.474;2023-06-22T03:05:03;24.40;57.30
45785;DHT22;31489;51.404;5.474;2023-06-22T03:07:29;24.40;57.40
45785;DHT22;31489;51.404;5.474;2023-06-22T03:09:55;24.40;57.40
45785;DHT22;31489;51.404;5.474;2023-06-22T03:12:21;24.40;57.40
45785;DHT22;31489;51.404;5.474;2023-06-22T03:14:46;24.40;57.50
45785;DHT22;31489;51.404;5.474;2023-06-22T03:17:12;24.50;57.50
45785;DHT22;31489;51.404;5.474;2023-06-22T03:19:37;24.40;57.40
45785;DHT22;31489;51.404;5.474;2023-06-22T03:22:03;24.40;57.70
45785;DHT22;31489;51.404;5.474;2023-06-22T03:24:29;24.40;57.80
45785;DHT22;31489;51.404;5.474;2023-06-22T03:26:55;24.40;57.70
45785;DHT22;31489;51.404;5.474;2023-06-22T03:29:22;24.40;57.90
45785;DHT22;31489;51.404;5.474;2023-06-22T03:31:47;24.40;57.80
45785;DHT22;31489;51.404;5.474;2023-06-22T03:34:13;24.40;57.60
45785;DHT22;31489;51.404;5.474;2023-06-22T03:36:38;24.40;57.60
45785;DHT22;31489;51.404;5.474;2023-06-22T03:39:04;24.40;57.50
45785;DHT22;31489;51.404;5.474;2023-06-22T03:41:30;24.40;57.50
45785;DHT22;31489;51.404;5.474;2023-06-22T03:43:55;24.40;57.70
45785;DHT22;31489;51.404;5.474;2023-06-22T03:46:21;24.40;57.60
45785;DHT22;31489;51.404;5.474;2023-06-22T03:48:46;24.40;58.00
45785;DHT22;31489;51.404;5.474;2023-06-22T03:51:12;24.40;57.80
45785;DHT22;31489;51.404;5.474;2023-06-22T03:53:38;24.30;57.70
45785;DHT22;31489;51.404;5.474;2023-06-22T03:56:03;24.30;58.00
45785;DHT22;31489;51.404;5.474;2023-06-22T03:58:29;24.30;58.00
45785;DHT22;31489;51.404;5.474;2023-06-22T04:00:58;24.30;58.30
45785;DHT22;31489;51.404;5.474;2023-06-22T04:03:25;24.30;58.20
45785;DHT22;31489;51.404;5.474;2023-06-22T04:05:51;24.30;58.40
45785;DHT22;31489;51.404;5.474;2023-06-22T04:08:17;24.30;58.70
45785;DHT22;31489;51.404;5.474;2023-06-22T04:10:43;24.20;58.40
45785;DHT22;31489;51.404;5.474;2023-06-22T04:13:09;24.30;58.70
45785;DHT22;31489;51.404;5.474;2023-06-22T04:15:34;24.30;58.80
45785;DHT22;31489;51.404;5.474;2023-06-22T04:18:00;24.30;58.70
45785;DHT22;31489;51.404;5.474;2023-06-22T04:20:26;24.30;59.00
45785;DHT22;31489;51.404;5.474;2023-06-22T04:22:53;24.30;58.90
45785;DHT22;31489;51.404;5.474;2023-06-22T04:25:19;24.30;59.10
45785;DHT22;31489;51.404;5.474;2023-06-22T04:27:45;24.30;59.00
45785;DHT22;31489;51.404;5.474;2023-06-22T04:30:11;24.30;59.00
45785;DHT22;31489;51.404;5.474;2023-06-22T04:32:37;24.40;59.20
45785;DHT22;31489;51.404;5.474;2023-06-22T04:35:03;24.40;59.10
45785;DHT22;31489;51.404;5.474;2023-06-22T04:37:33;24.40;59.30
45785;DHT22;31489;51.404;5.474;2023-06-22T04:39:59;24.40;58.90
45785;DHT22;31489;51.404;5.474;2023-06-22T04:42:27;24.40;58.90
45785;DHT22;31489;51.404;5.474;2023-06-22T04:44:53;24.40;59.40
45785;DHT22;31489;51.404;5.474;2023-06-22T04:47:19;24.40;59.10
45785;DHT22;31489;51.404;5.474;2023-06-22T04:49:45;24.40;59.10
45785;DHT22;31489;51.404;5.474;2023-06-22T04:52:12;24.40;59.20
45785;DHT22;31489;51.404;5.474;2023-06-22T04:54:39;24.40;59.40
45785;DHT22;31489;51.404;5.474;2023-06-22T04:57:13;24.40;59.20
45785;DHT22;31489;51.404;5.474;2023-06-22T04:59:38;24.50;59.30
45785;DHT22;31489;51.404;5.474;2023-06-22T05:02:07;24.50;59.60
45785;DHT22;31489;51.404;5.474;2023-06-22T05:04:33;24.50;59.60
45785;DHT22;31489;51.404;5.474;2023-06-22T05:07:01;24.50;59.80
45785;DHT22;31489;51.404;5.474;2023-06-22T05:09:28;24.50;59.60
45785;DHT22;31489;51.404;5.474;2023-06-22T05:11:54;24.60;59.80
45785;DHT22;31489;51.404;5.474;2023-06-22T05:14:20;24.60;59.50
45785;DHT22;31489;51.404;5.474;2023-06-22T05:16:46;24.60;59.60
45785;DHT22;31489;51.404;5.474;2023-06-22T05:19:12;24.60;59.70
45785;DHT22;31489;51.404;5.474;2023-06-22T05:21:38;24.60;59.80
45785;DHT22;31489;51.404;5.474;2023-06-22T05:24:03;24.60;59.60
45785;DHT22;31489;51.404;5.474;2023-06-22T05:26:31;24.60;59.90
45785;DHT22;31489;51.404;5.474;2023-06-22T05:28:57;24.60;60.20
45785;DHT22;31489;51.404;5.474;2023-06-22T05:31:23;24.60;59.70
45785;DHT22;31489;51.404;5.474;2023-06-22T05:33:51;24.60;59.70
45785;DHT22;31489;51.404;5.474;2023-06-22T05:36:17;24.60;59.70
45785;DHT22;31489;51.404;5.474;2023-06-22T05:38:45;24.60;59.90
45785;DHT22;31489;51.404;5.474;2023-06-22T05:41:11;24.60;59.80
45785;DHT22;31489;51.404;5.474;2023-06-22T05:43:37;24.70;60.20
45785;DHT22;31489;51.404;5.474;2023-06-22T05:46:04;24.70;60.10
45785;DHT22;31489;51.404;5.474;2023-06-22T05:48:30;24.70;60.20
45785;DHT22;31489;51.404;5.474;2023-06-22T05:50:56;24.70;60.30
45785;DHT22;31489;51.404;5.474;2023-06-22T05:53:21;24.70;60.30
45785;DHT22;31489;51.404;5.474;2023-06-22T05:55:47;24.70;60.50
45785;DHT22;31489;51.404;5.474;2023-06-22T05:58:13;24.70;60.50
45785;DHT22;31489;51.404;5.474;2023-06-22T06:00:39;24.80;60.30
45785;DHT22;31489;51.404;5.474;2023-06-22T06:03:06;24.80;60.10
45785;DHT22;31489;51.404;5.474;2023-06-22T06:05:33;24.80;60.20
45785;DHT22;31489;51.404;5.474;2023-06-22T06:08:00;24.90;60.20
45785;DHT22;31489;51.404;5.474;2023-06-22T06:10:26;24.90;60.50
45785;DHT22;31489;51.404;5.474;2023-06-22T06:12:55;25.00;60.60
45785;DHT22;31489;51.404;5.474;2023-06-22T06:15:21;25.00;60.50
45785;DHT22;31489;51.404;5.474;2023-06-22T06:17:52;25.00;60.60
45785;DHT22;31489;51.404;5.474;2023-06-22T06:20:19;25.00;61.00
45785;DHT22;31489;51.404;5.474;2023-06-22T06:22:45;25.10;60.80
45785;DHT22;31489;51.404;5.474;2023-06-22T06:25:11;25.10;60.70
45785;DHT22;31489;51.404;5.474;2023-06-22T06:27:44;25.10;60.30
45785;DHT22;31489;51.404;5.474;2023-06-22T06:30:15;25.20;60.30
45785;DHT22;31489;51.404;5.474;2023-06-22T06:32:41;25.20;60.50
45785;DHT22;31489;51.404;5.474;2023-06-22T06:35:08;25.20;60.50
45785;DHT22;31489;51.404;5.474;2023-06-22T06:37:36;25.20;61.00
45785;DHT22;31489;51.404;5.474;2023-06-22T06:40:04;25.30;60.90
45785;DHT22;31489;51.404;5.474;2023-06-22T06:42:31;25.30;60.70
45785;DHT22;31489;51.404;5.474;2023-06-22T06:44:59;25.30;60.80
45785;DHT22;31489;51.404;5.474;2023-06-22T06:47:25;25.30;61.30
45785;DHT22;31489;51.404;5.474;2023-06-22T06:49:51;25.30;60.90
45785;DHT22;31489;51.404;5.474;2023-06-22T06:52:16;25.40;61.50
45785;DHT22;31489;51.404;5.474;2023-06-22T06:54:42;25.30;61.40
45785;DHT22;31489;51.404;5.474;2023-06-22T06:57:07;25.30;61.40
45785;DHT22;31489;51.404;5.474;2023-06-22T06:59:36;25.30;61.10
45785;DHT22;31489;51.404;5.474;2023-06-22T07:02:01;25.30;61.00
45785;DHT22;31489;51.404;5.474;2023-06-22T07:04:27;25.30;60.70
45785;DHT22;31489;51.404;5.474;2023-06-22T07:06:53;25.30;60.70
45785;DHT22;31489;51.404;5.474;2023-06-22T07:09:18;25.30;60.90
45785;DHT22;31489;51.404;5.474;2023-06-22T07:11:47;25.20;60.50
45785;DHT22;31489;51.404;5.474;2023-06-22T07:14:12;25.30;60.80
45785;DHT22;31489;51.404;5.474;2023-06-22T07:16:38;25.30;61.00
45785;DHT22;31489;51.404;5.474;2023-06-22T07:19:03;25.30;60.90
45785;DHT22;31489;51.404;5.474;2023-06-22T07:21:29;25.30;61.70
45785;DHT22;31489;51.404;5.474;2023-06-22T07:23:54;25.30;61.60
45785;DHT22;31489;51.404;5.474;2023-06-22T07:26:20;25.30;61.50
45785;DHT22;31489;51.404;5.474;2023-06-22T07:28:46;25.40;62.00
45785;DHT22;31489;51.404;5.474;2023-06-22T07:31:12;25.40;61.70
45785;DHT22;31489;51.404;5.474;2023-06-22T07:33:37;25.40;61.90
45785;DHT22;31489;51.404;5.474;2023-06-22T07:36:03;25.40;61.90
45785;DHT22;31489;51.404;5.474;2023-06-22T07:38:33;25.50;61.70
45785;DHT22;31489;51.404;5.474;2023-06-22T07:40:59;25.50;61.50
45785;DHT22;31489;51.404;5.474;2023-06-22T07:43:24;25.60;62.30
45785;DHT22;31489;51.404;5.474;2023-06-22T07:45:50;25.60;61.70
45785;DHT22;31489;51.404;5.474;2023-06-22T07:48:22;25.70;61.30
45785;DHT22;31489;51.404;5.474;2023-06-22T07:50:48;25.70;61.70
45785;DHT22;31489;51.404;5.474;2023-06-22T07:53:14;25.80;62.00
45785;DHT22;31489;51.404;5.474;2023-06-22T07:55:40;25.90;61.50
45785;DHT22;31489;51.404;5.474;2023-06-22T07:58:06;25.90;60.90
45785;DHT22;31489;51.404;5.474;2023-06-22T08:00:33;25.90;60.50
45785;DHT22;31489;51.404;5.474;2023-06-22T08:02:59;26.00;60.80
45785;DHT22;31489;51.404;5.474;2023-06-22T08:05:25;26.10;61.00
45785;DHT22;31489;51.404;5.474;2023-06-22T08:07:50;26.10;60.60
45785;DHT22;31489;51.404;5.474;2023-06-22T08:10:16;26.20;60.50
45785;DHT22;31489;51.404;5.474;2023-06-22T08:12:42;26.20;60.30
45785;DHT22;31489;51.404;5.474;2023-06-22T08:15:09;26.20;60.00
45785;DHT22;31489;51.404;5.474;2023-06-22T08:17:36;26.30;59.70
45785;DHT22;31489;51.404;5.474;2023-06-22T08:20:03;26.20;59.70
45785;DHT22;31489;51.404;5.474;2023-06-22T08:22:35;26.30;60.10
45785;DHT22;31489;51.404;5.474;2023-06-22T08:25:02;26.30;60.00
45785;DHT22;31489;51.404;5.474;2023-06-22T08:27:29;26.30;60.00
45785;DHT22;31489;51.404;5.474;2023-06-22T08:29:57;26.30;59.90
45785;DHT22;31489;51.404;5.474;2023-06-22T08:32:24;26.30;60.30
45785;DHT22;31489;51.404;5.474;2023-06-22T08:34:52;26.30;60.60
45785;DHT22;31489;51.404;5.474;2023-06-22T08:37:19;26.30;60.70
45785;DHT22;31489;51.404;5.474;2023-06-22T08:39:44;26.30;60.30
45785;DHT22;31489;51.404;5.474;2023-06-22T08:42:10;26.30;60.60
45785;DHT22;31489;51.404;5.474;2023-06-22T08:44:35;26.30;60.60
45785;DHT22;31489;51.404;5.474;2023-06-22T08:47:04;26.30;60.90
45785;DHT22;31489;51.404;5.474;2023-06-22T08:49:30;26.30;60.90
45785;DHT22;31489;51.404;5.474;2023-06-22T08:51:55;26.30;60.60
45785;DHT22;31489;51.404;5.474;2023-06-22T08:54:22;26.30;60.40
45785;DHT22;31489;51.404;5.474;2023-06-22T08:56:48;26.30;60.60
45785;DHT22;31489;51.404;5.474;2023-06-22T08:59:14;26.40;60.80
45785;DHT22;31489;51.404;5.474;2023-06-22T09:01:39;26.40;61.00
45785;DHT22;31489;51.404;5.474;2023-06-22T09:04:05;26.40;61.20
45785;DHT22;31489;51.404;5.474;2023-06-22T09:06:32;26.40;61.70
45785;DHT22;31489;51.404;5.474;2023-06-22T09:08:58;26.50;62.30
45785;DHT22;31489;51.404;5.474;2023-06-22T09:11:27;26.50;62.40
45785;DHT22;31489;51.404;5.474;2023-06-22T09:13:53;26.60;62.10
45785;DHT22;31489;51.404;5.474;2023-06-22T09:16:19;26.60;61.30
45785;DHT22;31489;51.404;5.474;2023-06-22T09:18:48;26.70;61.80
45785;DHT22;31489;51.404;5.474;2023-06-22T09:21:13;26.70;61.20
45785;DHT22;31489;51.404;5.474;2023-06-22T09:23:39;26.80;61.00
45785;DHT22;31489;51.404;5.474;2023-06-22T09:26:05;26.80;61.10
45785;DHT22;31489;51.404;5.474;2023-06-22T09:28:31;26.80;61.20
45785;DHT22;31489;51.404;5.474;2023-06-22T09:30:56;26.90;60.60
45785;DHT22;31489;51.404;5.474;2023-06-22T09:33:26;26.90;60.60
45785;DHT22;31489;51.404;5.474;2023-06-22T09:35:51;26.90;60.90
45785;DHT22;31489;51.404;5.474;2023-06-22T09:38:17;26.90;60.80
45785;DHT22;31489;51.404;5.474;2023-06-22T09:40:43;26.90;60.60
45785;DHT22;31489;51.404;5.474;2023-06-22T09:43:08;26.90;60.90
45785;DHT22;31489;51.404;5.474;2023-06-22T09:45:34;26.90;61.20
45785;DHT22;31489;51.404;5.474;2023-06-22T09:48:00;26.90;60.50
45785;DHT22;31489;51.404;5.474;2023-06-22T09:50:26;26.90;61.00
45785;DHT22;31489;51.404;5.474;2023-06-22T09:52:51;26.80;61.10
45785;DHT22;31489;51.404;5.474;2023-06-22T09:55:20;26.80;60.70
45785;DHT22;31489;51.404;5.474;2023-06-22T09:57:46;26.80;60.90
45785;DHT22;31489;51.404;5.474;2023-06-22T10:00:13;26.80;60.20
45785;DHT22;31489;51.404;5.474;2023-06-22T10:02:40;26.80;60.40
45785;DHT22;31489;51.404;5.474;2023-06-22T10:05:06;26.70;60.10
45785;DHT22;31489;51.404;5.474;2023-06-22T10:07:33;26.70;60.50
45785;DHT22;31489;51.404;5.474;2023-06-22T10:09:59;26.70;60.50
45785;DHT22;31489;51.404;5.474;2023-06-22T10:12:25;26.70;61.00
45785;DHT22;31489;51.404;5.474;2023-06-22T10:14:51;26.70;60.90
45785;DHT22;31489;51.404;5.474;2023-06-22T10:17:16;26.70;60.90
45785;DHT22;31489;51.404;5.474;2023-06-22T10:19:42;26.70;61.00
45785;DHT22;31489;51.404;5.474;2023-06-22T10:22:07;26.70;61.10
45785;DHT22;31489;51.404;5.474;2023-06-22T10:24:33;26.70;62.50
45785;DHT22;31489;51.404;5.474;2023-06-22T10:26:59;26.70;61.20
45785;DHT22;31489;51.404;5.474;2023-06-22T10:29:24;26.70;61.80
45785;DHT22;31489;51.404;5.474;2023-06-22T10:31:50;26.70;61.90
45785;DHT22;31489;51.404;5.474;2023-06-22T10:34:15;26.60;61.30
45785;DHT22;31489;51.404;5.474;2023-06-22T10:36:41;26.60;61.60
45785;DHT22;31489;51.404;5.474;2023-06-22T10:39:07;26.60;62.10
45785;DHT22;31489;51.404;5.474;2023-06-22T10:41:32;26.60;63.30
45785;DHT22;31489;51.404;5.474;2023-06-22T10:43:58;26.60;64.20
45785;DHT22;31489;51.404;5.474;2023-06-22T10:46:24;26.60;64.30
45785;DHT22;31489;51.404;5.474;2023-06-22T10:48:51;26.60;65.70
45785;DHT22;31489;51.404;5.474;2023-06-22T10:51:19;26.50;65.10
45785;DHT22;31489;51.404;5.474;2023-06-22T10:53:45;26.50;65.50
45785;DHT22;31489;51.404;5.474;2023-06-22T10:56:11;26.40;65.80
45785;DHT22;31489;51.404;5.474;2023-06-22T10:58:39;26.40;66.20
45785;DHT22;31489;51.404;5.474;2023-06-22T11:01:04;26.30;66.70
45785;DHT22;31489;51.404;5.474;2023-06-22T11:03:30;26.20;66.40
45785;DHT22;31489;51.404;5.474;2023-06-22T11:05:56;26.20;66.70
45785;DHT22;31489;51.404;5.474;2023-06-22T11:08:21;26.20;66.80
45785;DHT22;31489;51.404;5.474;2023-06-22T11:10:47;26.10;66.90
45785;DHT22;31489;51.404;5.474;2023-06-22T11:13:12;26.00;67.50
45785;DHT22;31489;51.404;5.474;2023-06-22T11:15:43;26.00;67.90
45785;DHT22;31489;51.404;5.474;2023-06-22T11:18:09;25.90;68.10
45785;DHT22;31489;51.404;5.474;2023-06-22T11:20:35;25.80;67.80
45785;DHT22;31489;51.404;5.474;2023-06-22T11:23:04;25.80;67.80
45785;DHT22;31489;51.404;5.474;2023-06-22T11:25:31;25.70;68.30
45785;DHT22;31489;51.404;5.474;2023-06-22T11:27:57;25.70;68.40
45785;DHT22;31489;51.404;5.474;2023-06-22T11:30:23;25.60;68.80
45785;DHT22;31489;51.404;5.474;2023-06-22T11:32:48;25.50;68.40
45785;DHT22;31489;51.404;5.474;2023-06-22T11:35:14;25.50;68.50
45785;DHT22;31489;51.404;5.474;2023-06-22T11:37:40;25.40;68.70
45785;DHT22;31489;51.404;5.474;2023-06-22T11:40:06;25.40;69.10
45785;DHT22;31489;51.404;5.474;2023-06-22T11:42:34;25.30;69.50
45785;DHT22;31489;51.404;5.474;2023-06-22T11:45:00;25.30;69.90
45785;DHT22;31489;51.404;5.474;2023-06-22T11:47:25;25.20;70.10
45785;DHT22;31489;51.404;5.474;2023-06-22T11:49:51;25.20;69.60
45785;DHT22;31489;51.404;5.474;2023-06-22T11:52:17;25.10;69.80
45785;DHT22;31489;51.404;5.474;2023-06-22T11:54:43;25.10;70.20
45785;DHT22;31489;51.404;5.474;2023-06-22T11:57:09;25.00;70.40
45785;DHT22;31489;51.404;5.474;2023-06-22T11:59:34;25.00;70.90
45785;DHT22;31489;51.404;5.474;2023-06-22T12:02:00;25.00;71.20
45785;DHT22;31489;51.404;5.474;2023-06-22T12:04:26;25.00;71.30
45785;DHT22;31489;51.404;5.474;2023-06-22T12:06:52;25.00;71.00
45785;DHT22;31489;51.404;5.474;2023-06-22T12:09:17;25.00;71.30
45785;DHT22;31489;51.404;5.474;2023-06-22T12:11:43;24.90;71.10
45785;DHT22;31489;51.404;5.474;2023-06-22T12:14:08;24.90;70.90
45785;DHT22;31489;51.404;5.474;2023-06-22T12:16:34;24.90;71.60
45785;DHT22;31489;51.404;5.474;2023-06-22T12:19:00;24.90;71.60
45785;DHT22;31489;51.404;5.474;2023-06-22T12:21:26;24.90;70.90
45785;DHT22;31489;51.404;5.474;2023-06-22T12:23:51;24.90;71.50
45785;DHT22;31489;51.404;5.474;2023-06-22T12:26:17;24.80;71.50
45785;DHT22;31489;51.404;5.474;2023-06-22T12:28:42;24.80;71.00
45785;DHT22;31489;51.404;5.474;2023-06-22T12:31:08;24.80;70.90
45785;DHT22;31489;51.404;5.474;2023-06-22T12:33:34;24.80;71.80
45785;DHT22;31489;51.404;5.474;2023-06-22T12:35:59;24.80;71.90
45785;DHT22;31489;51.404;5.474;2023-06-22T12:38:25;24.80;71.80
45785;DHT22;31489;51.404;5.474;2023-06-22T12:40:51;24.80;72.00
45785;DHT22;31489;51.404;5.474;2023-06-22T12:43:17;24.80;72.10
45785;DHT22;31489;51.404;5.474;2023-06-22T12:45:43;24.80;72.00
45785;DHT22;31489;51.404;5.474;2023-06-22T12:48:09;24.80;71.50
45785;DHT22;31489;51.404;5.474;2023-06-22T12:50:34;24.80;71.30
45785;DHT22;31489;51.404;5.474;2023-06-22T12:53:00;24.80;71.30
45785;DHT22;31489;51.404;5.474;2023-06-22T12:55:27;24.80;71.70
45785;DHT22;31489;51.404;5.474;2023-06-22T12:57:53;24.70;72.50
45785;DHT22;31489;51.404;5.474;2023-06-22T13:00:19;24.70;71.90
45785;DHT22;31489;51.404;5.474;2023-06-22T13:02:45;24.70;72.10
45785;DHT22;31489;51.404;5.474;2023-06-22T13:05:10;24.70;72.10
45785;DHT22;31489;51.404;5.474;2023-06-22T13:07:39;24.70;72.00
45785;DHT22;31489;51.404;5.474;2023-06-22T13:10:05;24.70;71.70
45785;DHT22;31489;51.404;5.474;2023-06-22T13:12:31;24.70;71.70
45785;DHT22;31489;51.404;5.474;2023-06-22T13:14:56;24.70;71.70
45785;DHT22;31489;51.404;5.474;2023-06-22T13:17:22;24.70;71.80
45785;DHT22;31489;51.404;5.474;2023-06-22T13:19:48;24.70;71.60
45785;DHT22;31489;51.404;5.474;2023-06-22T13:22:32;24.70;71.70
45785;DHT22;31489;51.404;5.474;2023-06-22T13:24:59;24.60;72.40
45785;DHT22;31489;51.404;5.474;2023-06-22T13:27:25;24.70;71.80
45785;DHT22;31489;51.404;5.474;2023-06-22T13:29:51;24.60;71.50
45785;DHT22;31489;51.404;5.474;2023-06-22T13:32:17;24.60;71.80
45785;DHT22;31489;51.404;5.474;2023-06-22T13:34:43;24.60;72.10
45785;DHT22;31489;51.404;5.474;2023-06-22T13:37:09;24.60;72.10
45785;DHT22;31489;51.404;5.474;2023-06-22T13:39:35;24.60;72.00
45785;DHT22;31489;51.404;5.474;2023-06-22T13:42:00;24.60;72.30
45785;DHT22;31489;51.404;5.474;2023-06-22T13:44:26;24.50;71.50
45785;DHT22;31489;51.404;5.474;2023-06-22T13:46:54;24.50;72.10
45785;DHT22;31489;51.404;5.474;2023-06-22T13:49:20;24.50;72.20
45785;DHT22;31489;51.404;5.474;2023-06-22T13:51:47;24.50;72.10
45785;DHT22;31489;51.404;5.474;2023-06-22T13:54:13;24.50;71.80
45785;DHT22;31489;51.404;5.474;2023-06-22T13:56:39;24.40;72.00
45785;DHT22;31489;51.404;5.474;2023-06-22T13:59:05;24.40;72.10
45785;DHT22;31489;51.404;5.474;2023-06-22T14:01:32;24.40;71.70
45785;DHT22;31489;51.404;5.474;2023-06-22T14:03:57;24.40;71.50
45785;DHT22;31489;51.404;5.474;2023-06-22T14:06:23;24.30;71.40
45785;DHT22;31489;51.404;5.474;2023-06-22T14:08:49;24.30;71.90
45785;DHT22;31489;51.404;5.474;2023-06-22T14:11:16;24.30;71.70
45785;DHT22;31489;51.404;5.474;2023-06-22T14:13:41;24.20;71.80
45785;DHT22;31489;51.404;5.474;2023-06-22T14:16:08;24.20;72.30
45785;DHT22;31489;51.404;5.474;2023-06-22T14:18:34;24.20;72.10
45785;DHT22;31489;51.404;5.474;2023-06-22T14:20:59;24.20;72.60
45785;DHT22;31489;51.404;5.474;2023-06-22T14:23:25;24.20;72.60
45785;DHT22;31489;51.404;5.474;2023-06-22T14:25:51;24.10;72.50
45785;DHT22;31489;51.404;5.474;2023-06-22T14:28:16;24.00;72.50
45785;DHT22;31489;51.404;5.474;2023-06-22T14:30:43;24.00;72.70
45785;DHT22;31489;51.404;5.474;2023-06-22T14:33:09;24.00;72.90
45785;DHT22;31489;51.404;5.474;2023-06-22T14:35:34;23.90;72.80
45785;DHT22;31489;51.404;5.474;2023-06-22T14:38:00;23.90;73.00
45785;DHT22;31489;51.404;5.474;2023-06-22T14:40:26;23.90;73.20
45785;DHT22;31489;51.404;5.474;2023-06-22T14:42:51;23.90;73.50
45785;DHT22;31489;51.404;5.474;2023-06-22T14:45:17;23.90;73.50
45785;DHT22;31489;51.404;5.474;2023-06-22T14:47:42;23.90;73.60
45785;DHT22;31489;51.404;5.474;2023-06-22T14:50:08;23.80;73.50
45785;DHT22;31489;51.404;5.474;2023-06-22T14:52:34;23.80;73.60
45785;DHT22;31489;51.404;5.474;2023-06-22T14:55:01;23.80;73.60
45785;DHT22;31489;51.404;5.474;2023-06-22T14:57:27;23.70;73.40
45785;DHT22;31489;51.404;5.474;2023-06-22T14:59:53;23.70;74.00
45785;DHT22;31489;51.404;5.474;2023-06-22T15:02:19;23.70;74.30
45785;DHT22;31489;51.404;5.474;2023-06-22T15:04:45;23.70;74.30
45785;DHT22;31489;51.404;5.474;2023-06-22T15:07:10;23.70;74.40
45785;DHT22;31489;51.404;5.474;2023-06-22T15:09:36;23.60;74.50
45785;DHT22;31489;51.404;5.474;2023-06-22T15:12:04;23.60;74.50
45785;DHT22;31489;51.404;5.474;2023-06-22T15:14:33;23.60;74.80
45785;DHT22;31489;51.404;5.474;2023-06-22T15:16:58;23.60;74.80
45785;DHT22;31489;51.404;5.474;2023-06-22T15:19:24;23.60;74.80
45785;DHT22;31489;51.404;5.474;2023-06-22T15:21:49;23.50;74.80
45785;DHT22;31489;51.404;5.474;2023-06-22T15:24:15;23.40;74.70
45785;DHT22;31489;51.404;5.474;2023-06-22T15:26:41;23.40;75.30
45785;DHT22;31489;51.404;5.474;2023-06-22T15:29:06;23.40;75.30